createdAt,value
2023-02-16T00:01:21.764Z,101080.00
2023-02-16T00:03:49.707Z,101082.00
2023-02-16T00:06:17.636Z,101077.00
2023-02-16T00:08:46.128Z,101078.00
2023-02-16T00:11:36.249Z,101085.00
2023-02-16T00:14:04.782Z,101089.00
2023-02-16T00:16:32.075Z,101085.00
2023-02-16T00:18:59.360Z,101090.00
2023-02-16T00:21:26.677Z,101099.00
2023-02-16T00:23:54.181Z,101086.00
2023-02-16T00:26:24.232Z,101087.00
2023-02-16T00:28:53.724Z,101085.00
2023-02-16T00:31:22.424Z,101094.00
2023-02-16T00:33:50.190Z,101085.00
2023-02-16T00:36:17.504Z,101077.00
2023-02-16T00:38:44.778Z,101080.00
2023-02-16T00:41:31.807Z,101083.00
2023-02-16T00:43:59.869Z,101075.00
2023-02-16T00:46:27.277Z,101080.00
2023-02-16T00:48:54.595Z,101074.00
2023-02-16T00:51:26.190Z,101075.00
2023-02-16T00:53:53.801Z,101064.00
2023-02-16T00:56:21.886Z,101065.00
2023-02-16T00:58:52.361Z,101069.00
2023-02-16T01:01:24.004Z,101071.00
2023-02-16T01:03:51.341Z,101075.00
2023-02-16T01:06:36.659Z,101064.00
2023-02-16T01:09:31.617Z,101058.00
2023-02-16T01:11:59.504Z,101062.00
2023-02-16T01:14:27.022Z,101056.00
2023-02-16T01:16:54.995Z,101058.00
2023-02-16T01:19:22.251Z,101063.00
2023-02-16T01:21:49.660Z,101059.00
2023-02-16T01:24:16.949Z,101063.00
2023-02-16T01:26:48.753Z,101052.00
2023-02-16T01:29:18.252Z,101059.00
2023-02-16T01:31:46.295Z,101059.00
2023-02-16T01:34:14.559Z,101063.00
2023-02-16T01:36:44.444Z,101050.00
2023-02-16T01:39:13.339Z,101053.00
2023-02-16T01:41:54.174Z,101051.00
2023-02-16T01:44:24.411Z,101057.00
2023-02-16T01:46:56.284Z,101054.00
2023-02-16T01:49:24.406Z,101045.00
2023-02-16T01:51:56.708Z,101053.00
2023-02-16T01:54:37.235Z,101035.00
2023-02-16T01:57:11.946Z,101036.00
2023-02-16T01:59:57.026Z,101040.00
2023-02-16T02:02:26.308Z,101043.00
2023-02-16T02:05:16.811Z,101045.00
2023-02-16T02:07:50.051Z,101040.00
2023-02-16T02:10:28.321Z,101037.00
2023-02-16T02:12:59.421Z,101033.00
2023-02-16T02:15:30.732Z,101037.00
2023-02-16T02:17:58.247Z,101039.00
2023-02-16T02:20:58.148Z,101027.00
2023-02-16T02:23:39.873Z,101034.00
2023-02-16T02:26:43.049Z,101030.00
2023-02-16T02:29:46.424Z,101033.00
2023-02-16T02:32:22.803Z,101031.00
2023-02-16T02:35:03.198Z,101038.00
2023-02-16T02:37:43.752Z,101032.00
2023-02-16T02:40:16.435Z,101032.00
2023-02-16T02:42:55.011Z,101025.00
2023-02-16T02:45:24.754Z,101019.00
2023-02-16T02:47:52.689Z,101025.00
2023-02-16T02:51:03.406Z,101022.00
2023-02-16T02:53:31.319Z,101023.00
2023-02-16T02:56:19.165Z,101027.00
2023-02-16T02:59:08.360Z,101035.00
2023-02-16T03:01:38.983Z,101019.00
2023-02-16T03:04:10.831Z,101035.00
2023-02-16T03:06:43.707Z,101027.00
2023-02-16T03:09:13.917Z,101038.00
2023-02-16T03:12:00.408Z,101031.00
2023-02-16T03:14:31.967Z,101023.00
2023-02-16T03:17:19.696Z,101029.00
2023-02-16T03:20:09.189Z,101037.00
2023-02-16T03:22:55.692Z,101025.00
2023-02-16T03:25:43.502Z,101029.00
2023-02-16T03:28:29.988Z,101038.00
2023-02-16T03:30:57.674Z,101040.00
2023-02-16T03:33:26.507Z,101047.00
2023-02-16T03:35:55.009Z,101044.00
2023-02-16T03:38:22.744Z,101043.00
2023-02-16T03:40:51.775Z,101033.00
2023-02-16T03:43:19.036Z,101038.00
2023-02-16T03:45:46.415Z,101038.00
2023-02-16T03:48:13.698Z,101032.00
2023-02-16T03:50:41.021Z,101042.00
2023-02-16T03:53:09.004Z,101046.00
2023-02-16T03:55:38.093Z,101029.00
2023-02-16T03:58:06.585Z,101024.00
2023-02-16T04:00:35.042Z,101023.00
2023-02-16T04:03:02.763Z,101035.00
2023-02-16T04:05:30.371Z,101039.00
2023-02-16T04:07:57.750Z,101039.00
2023-02-16T04:10:25.963Z,101029.00
2023-02-16T04:12:53.127Z,101038.00
2023-02-16T04:15:22.814Z,101029.00
2023-02-16T04:17:50.307Z,101033.00
2023-02-16T04:20:20.233Z,101016.00
2023-02-16T04:22:48.162Z,101022.00
2023-02-16T04:25:16.422Z,101024.00
2023-02-16T04:27:44.906Z,101013.00
2023-02-16T04:30:15.018Z,101012.00
2023-02-16T04:32:42.401Z,101017.00
2023-02-16T04:35:09.972Z,101016.00
2023-02-16T04:37:37.268Z,101015.00
2023-02-16T04:40:05.640Z,101021.00
2023-02-16T04:42:32.934Z,101017.00
2023-02-16T04:45:00.851Z,101016.00
2023-02-16T04:47:28.172Z,101010.00
2023-02-16T04:49:55.466Z,101020.00
2023-02-16T04:52:22.743Z,101020.00
2023-02-16T04:54:50.050Z,101020.00
2023-02-16T04:57:18.682Z,101021.00
2023-02-16T04:59:45.962Z,101029.00
2023-02-16T05:02:13.884Z,101031.00
2023-02-16T05:04:41.802Z,101032.00
2023-02-16T05:07:09.112Z,101028.00
2023-02-16T05:09:36.361Z,101024.00
2023-02-16T05:12:21.601Z,101029.00
2023-02-16T05:14:49.240Z,101028.00
2023-02-16T05:17:19.225Z,101027.00
2023-02-16T05:19:48.217Z,101028.00
2023-02-16T05:22:16.023Z,101038.00
2023-02-16T05:24:43.715Z,101029.00
2023-02-16T05:27:13.858Z,101029.00
2023-02-16T05:29:41.311Z,101028.00
2023-02-16T05:32:08.687Z,101041.00
2023-02-16T05:34:37.591Z,101034.00
2023-02-16T05:37:04.981Z,101038.00
2023-02-16T05:39:32.309Z,101023.00
2023-02-16T05:41:59.599Z,101031.00
2023-02-16T05:44:27.121Z,101037.00
2023-02-16T05:46:54.448Z,101033.00
2023-02-16T05:49:21.809Z,101032.00
2023-02-16T05:51:49.788Z,101030.00
2023-02-16T05:54:17.119Z,101037.00
2023-02-16T05:56:45.647Z,101041.00
2023-02-16T05:59:13.364Z,101042.00
2023-02-16T06:01:40.627Z,101042.00
2023-02-16T06:04:08.939Z,101036.00
2023-02-16T06:06:37.306Z,101044.00
2023-02-16T06:09:06.413Z,101047.00
2023-02-16T06:11:36.933Z,101038.00
2023-02-16T06:14:06.378Z,101043.00
2023-02-16T06:16:34.854Z,101035.00
2023-02-16T06:19:02.852Z,101037.00
2023-02-16T06:21:30.511Z,101049.00
2023-02-16T06:23:58.094Z,101034.00
2023-02-16T06:26:26.673Z,101035.00
2023-02-16T06:28:54.309Z,101044.00
2023-02-16T06:31:21.840Z,101043.00
2023-02-16T06:33:49.196Z,101052.00
2023-02-16T06:36:16.765Z,101046.00
2023-02-16T06:38:44.762Z,101046.00
2023-02-16T06:41:12.311Z,101045.00
2023-02-16T06:43:40.208Z,101035.00
2023-02-16T06:46:07.489Z,101041.00
2023-02-16T06:48:34.805Z,101041.00
2023-02-16T06:51:02.447Z,101036.00
2023-02-16T06:53:29.882Z,101038.00
2023-02-16T06:55:57.158Z,101046.00
2023-02-16T06:58:24.458Z,101035.00
2023-02-16T07:00:55.183Z,101038.00
2023-02-16T07:03:22.492Z,101031.00
2023-02-16T07:05:50.013Z,101024.00
2023-02-16T07:08:17.408Z,101023.00
2023-02-16T07:10:50.203Z,101041.00
2023-02-16T07:13:17.799Z,101026.00
2023-02-16T07:15:45.198Z,101034.00
2023-02-16T07:18:13.463Z,101041.00
2023-02-16T07:20:41.193Z,101051.00
2023-02-16T07:23:08.528Z,101050.00
2023-02-16T07:25:37.143Z,101046.00
2023-02-16T07:28:04.651Z,101039.00
2023-02-16T07:30:32.233Z,101052.00
2023-02-16T07:32:59.570Z,101049.00
2023-02-16T07:35:27.916Z,101048.00
2023-02-16T07:37:55.190Z,101058.00
2023-02-16T07:40:22.482Z,101050.00
2023-02-16T07:42:49.745Z,101057.00
2023-02-16T07:45:17.231Z,101053.00
2023-02-16T07:47:44.536Z,101059.00
2023-02-16T07:50:12.415Z,101047.00
2023-02-16T07:52:40.373Z,101059.00
2023-02-16T07:55:08.046Z,101058.00
2023-02-16T07:57:38.388Z,101044.00
2023-02-16T08:00:07.125Z,101054.00
2023-02-16T08:02:34.854Z,101042.00
2023-02-16T08:05:02.557Z,101054.00
2023-02-16T08:07:29.894Z,101051.00
2023-02-16T08:09:58.240Z,101044.00
2023-02-16T08:12:25.512Z,101048.00
2023-02-16T08:14:52.965Z,101044.00
2023-02-16T08:17:20.289Z,101047.00
2023-02-16T08:19:47.630Z,101038.00
2023-02-16T08:22:15.078Z,101052.00
2023-02-16T08:24:42.763Z,101056.00
2023-02-16T08:27:10.816Z,101049.00
2023-02-16T08:29:38.132Z,101057.00
2023-02-16T08:32:07.123Z,101042.00
2023-02-16T08:34:34.934Z,101045.00
2023-02-16T08:37:02.266Z,101044.00
2023-02-16T08:39:32.130Z,101042.00
2023-02-16T08:42:00.772Z,101052.00
2023-02-16T08:44:29.617Z,101034.00
2023-02-16T08:46:59.962Z,101029.00
2023-02-16T08:49:27.636Z,101035.00
2023-02-16T08:51:56.524Z,101029.00
2023-02-16T08:54:27.445Z,101035.00
2023-02-16T08:56:55.056Z,101038.00
2023-02-16T08:59:23.800Z,101036.00
2023-02-16T09:01:51.924Z,101043.00
2023-02-16T09:04:20.169Z,101039.00
2023-02-16T09:06:48.231Z,101041.00
2023-02-16T09:09:16.044Z,101038.00
2023-02-16T09:11:43.378Z,101031.00
2023-02-16T09:14:10.714Z,101043.00
2023-02-16T09:16:43.157Z,101029.00
2023-02-16T09:19:11.652Z,101032.00
2023-02-16T09:21:39.845Z,101038.00
2023-02-16T09:24:07.574Z,101033.00
2023-02-16T09:26:37.815Z,101033.00
2023-02-16T09:29:06.319Z,101028.00
2023-02-16T09:31:36.624Z,101025.00
2023-02-16T09:34:07.351Z,101036.00
2023-02-16T09:36:35.566Z,101040.00
2023-02-16T09:39:02.883Z,101048.00
2023-02-16T09:41:37.497Z,101047.00
2023-02-16T09:44:17.441Z,101043.00
2023-02-16T09:46:46.322Z,101050.00
2023-02-16T09:49:23.794Z,101049.00
2023-02-16T09:52:00.548Z,101050.00
2023-02-16T09:54:39.096Z,101066.00
2023-02-16T09:57:12.495Z,101052.00
2023-02-16T09:59:48.666Z,101058.00
2023-02-16T10:02:41.337Z,101051.00
2023-02-16T10:05:23.771Z,101041.00
2023-02-16T10:08:06.263Z,101045.00
2023-02-16T10:10:44.594Z,101042.00
2023-02-16T10:13:22.486Z,101057.00
2023-02-16T10:15:53.941Z,101046.00
2023-02-16T10:18:27.728Z,101052.00
2023-02-16T10:20:59.381Z,101034.00
2023-02-16T10:23:40.263Z,101042.00
2023-02-16T10:26:18.414Z,101042.00
2023-02-16T10:28:48.371Z,101039.00
2023-02-16T10:31:23.963Z,101020.00
2023-02-16T10:34:23.022Z,101024.00
2023-02-16T10:37:18.784Z,101027.00
2023-02-16T10:39:52.888Z,101027.00
2023-02-16T10:42:27.596Z,101026.00
2023-02-16T10:45:02.042Z,101024.00
2023-02-16T10:47:35.075Z,101031.00
2023-02-16T10:50:02.407Z,101022.00
2023-02-16T10:52:36.871Z,101020.00
2023-02-16T10:55:06.246Z,101025.00
2023-02-16T10:57:33.843Z,101028.00
2023-02-16T11:00:04.807Z,101027.00
2023-02-16T11:02:38.389Z,101022.00
2023-02-16T11:05:31.511Z,101016.00
2023-02-16T11:08:01.232Z,101009.00
2023-02-16T11:10:38.508Z,101009.00
2023-02-16T11:13:07.816Z,101005.00
2023-02-16T11:15:38.114Z,100999.00
2023-02-16T11:18:08.692Z,101009.00
2023-02-16T11:20:53.984Z,100996.00
2023-02-16T11:23:24.545Z,100984.00
2023-02-16T11:25:58.214Z,100981.00
2023-02-16T11:28:32.654Z,100981.00
2023-02-16T11:31:12.008Z,100979.00
2023-02-16T11:33:41.044Z,100974.00
2023-02-16T11:36:21.255Z,100972.00
2023-02-16T11:38:58.264Z,100979.00
2023-02-16T11:41:27.881Z,100969.00
2023-02-16T11:43:56.204Z,100981.00
2023-02-16T11:46:24.029Z,100981.00
2023-02-16T11:48:51.732Z,100983.00
2023-02-16T11:51:32.371Z,100979.00
2023-02-16T11:54:03.138Z,100983.00
2023-02-16T11:56:33.188Z,100968.00
2023-02-16T11:59:07.496Z,100971.00
2023-02-16T12:01:48.552Z,100975.00
2023-02-16T12:04:28.389Z,100967.00
2023-02-16T12:07:07.720Z,100979.00
2023-02-16T12:09:45.529Z,100980.00
2023-02-16T12:12:16.842Z,100977.00
2023-02-16T12:14:56.340Z,100968.00
2023-02-16T12:17:35.031Z,100963.00
2023-02-16T12:20:16.514Z,100958.00
2023-02-16T12:22:48.607Z,100959.00
2023-02-16T12:25:29.245Z,100949.00
2023-02-16T12:28:05.904Z,100946.00
2023-02-16T12:30:45.394Z,100954.00
2023-02-16T12:33:40.849Z,100954.00
2023-02-16T12:36:41.277Z,100947.00
2023-02-16T12:39:17.468Z,100947.00
2023-02-16T12:41:58.505Z,100947.00
2023-02-16T12:44:35.701Z,100937.00
2023-02-16T12:47:07.505Z,100937.00
2023-02-16T12:49:43.830Z,100934.00
2023-02-16T12:52:21.617Z,100937.00
2023-02-16T12:54:52.663Z,100930.00
2023-02-16T12:57:24.280Z,100940.00
2023-02-16T12:59:57.022Z,100929.00
2023-02-16T13:02:28.721Z,100924.00
2023-02-16T13:05:02.919Z,100925.00
2023-02-16T13:07:35.274Z,100926.00
2023-02-16T13:10:07.330Z,100927.00
2023-02-16T13:12:40.042Z,100926.00
2023-02-16T13:15:13.873Z,100912.00
2023-02-16T13:17:46.095Z,100922.00
2023-02-16T13:20:16.081Z,100917.00
2023-02-16T13:23:04.281Z,100922.00
2023-02-16T13:26:10.888Z,100928.00
2023-02-16T13:28:53.067Z,100928.00
2023-02-16T13:31:37.882Z,100912.00
2023-02-16T13:34:42.425Z,100924.00
2023-02-16T13:37:36.220Z,100915.00
2023-02-16T13:40:47.235Z,100918.00
2023-02-16T13:43:25.348Z,100920.00
2023-02-16T13:45:53.882Z,100906.00
2023-02-16T13:48:28.655Z,100911.00
2023-02-16T13:50:58.937Z,100915.00
2023-02-16T13:53:30.643Z,100916.00
2023-02-16T13:56:21.976Z,100916.00
2023-02-16T13:58:49.603Z,100921.00
2023-02-16T14:01:38.604Z,100917.00
2023-02-16T14:04:11.982Z,100929.00
2023-02-16T14:06:42.008Z,100928.00
2023-02-16T14:09:33.314Z,100923.00
2023-02-16T14:12:15.559Z,100927.00
2023-02-16T14:14:55.115Z,100928.00
2023-02-16T14:17:27.122Z,100931.00
2023-02-16T14:19:57.324Z,100930.00
2023-02-16T14:22:41.223Z,100924.00
2023-02-16T14:25:33.865Z,100934.00
2023-02-16T14:28:03.007Z,100933.00
2023-02-16T14:30:34.834Z,100931.00
2023-02-16T14:33:16.028Z,100931.00
2023-02-16T14:35:46.544Z,100927.00
2023-02-16T14:38:21.792Z,100924.00
2023-02-16T14:40:54.730Z,100926.00
2023-02-16T14:43:31.080Z,100928.00
2023-02-16T14:46:32.049Z,100919.00
2023-02-16T14:49:27.889Z,100924.00
2023-02-16T14:52:36.478Z,100923.00
2023-02-16T14:55:29.181Z,100924.00
2023-02-16T14:58:03.325Z,100919.00
2023-02-16T15:00:39.852Z,100912.00
2023-02-16T15:03:17.241Z,100917.00
2023-02-16T15:05:52.144Z,100909.00
2023-02-16T15:08:23.068Z,100918.00
2023-02-16T15:10:53.512Z,100919.00
2023-02-16T15:13:22.273Z,100916.00
2023-02-16T15:15:52.635Z,100920.00
2023-02-16T15:18:23.272Z,100912.00
2023-02-16T15:20:53.611Z,100917.00
2023-02-16T15:23:23.344Z,100909.00
2023-02-16T15:25:57.929Z,100909.00
2023-02-16T15:28:28.669Z,100905.00
2023-02-16T15:30:58.394Z,100919.00
2023-02-16T15:33:37.267Z,100908.00
2023-02-16T15:36:08.209Z,100912.00
2023-02-16T15:38:38.321Z,100912.00
2023-02-16T15:41:08.230Z,100908.00
2023-02-16T15:43:37.782Z,100899.00
2023-02-16T15:46:08.310Z,100902.00
2023-02-16T15:48:37.657Z,100897.00
2023-02-16T15:51:14.200Z,100895.00
2023-02-16T15:53:51.575Z,100906.00
2023-02-16T15:56:33.703Z,100897.00
2023-02-16T15:59:03.156Z,100906.00
2023-02-16T16:01:33.046Z,100902.00
2023-02-16T16:04:04.143Z,100900.00
2023-02-16T16:06:39.885Z,100894.00
2023-02-16T16:09:17.402Z,100902.00
2023-02-16T16:11:44.921Z,100899.00
2023-02-16T16:14:13.981Z,100896.00
2023-02-16T16:16:42.593Z,100892.00
2023-02-16T16:19:17.040Z,100897.00
2023-02-16T16:21:51.211Z,100894.00
2023-02-16T16:24:33.487Z,100886.00
2023-02-16T16:27:03.704Z,100895.00
2023-02-16T16:29:34.884Z,100887.00
2023-02-16T16:32:03.344Z,100890.00
2023-02-16T16:34:37.047Z,100883.00
2023-02-16T16:37:06.948Z,100890.00
2023-02-16T16:39:39.721Z,100891.00
2023-02-16T16:42:18.136Z,100891.00
2023-02-16T16:44:53.846Z,100895.00
2023-02-16T16:47:28.413Z,100892.00
2023-02-16T16:49:58.089Z,100883.00
2023-02-16T16:52:47.481Z,100885.00
2023-02-16T16:55:25.473Z,100886.00
2023-02-16T16:57:54.698Z,100881.00
2023-02-16T17:00:24.396Z,100876.00
2023-02-16T17:02:52.238Z,100888.00
2023-02-16T17:05:20.350Z,100875.00
2023-02-16T17:07:49.413Z,100886.00
2023-02-16T17:10:19.091Z,100883.00
2023-02-16T17:12:50.922Z,100882.00
2023-02-16T17:15:41.914Z,100881.00
2023-02-16T17:18:13.960Z,100887.00
2023-02-16T17:20:41.829Z,100887.00
2023-02-16T17:23:11.534Z,100881.00
2023-02-16T17:25:39.253Z,100892.00
2023-02-16T17:28:07.430Z,100889.00
2023-02-16T17:30:35.599Z,100885.00
2023-02-16T17:33:03.905Z,100870.00
2023-02-16T17:35:32.601Z,100867.00
2023-02-16T17:38:05.956Z,100871.00
2023-02-16T17:40:33.511Z,100869.00
2023-02-16T17:43:01.089Z,100876.00
2023-02-16T17:45:29.137Z,100870.00
2023-02-16T17:47:56.611Z,100876.00
2023-02-16T17:50:25.396Z,100883.00
2023-02-16T17:52:56.408Z,100883.00
2023-02-16T17:55:23.793Z,100882.00
2023-02-16T17:57:51.147Z,100879.00
2023-02-16T18:00:20.028Z,100877.00
2023-02-16T18:02:48.218Z,100885.00
2023-02-16T18:05:15.719Z,100881.00
2023-02-16T18:07:43.037Z,100885.00
2023-02-16T18:10:18.248Z,100893.00
2023-02-16T18:12:45.711Z,100895.00
2023-02-16T18:15:13.451Z,100890.00
2023-02-16T18:17:40.728Z,100898.00
2023-02-16T18:20:14.087Z,100905.00
2023-02-16T18:22:41.581Z,100899.00
2023-02-16T18:25:09.378Z,100904.00
2023-02-16T18:27:36.704Z,100902.00
2023-02-16T18:30:05.568Z,100907.00
2023-02-16T18:32:32.945Z,100906.00
2023-02-16T18:35:00.575Z,100905.00
2023-02-16T18:37:28.826Z,100905.00
2023-02-16T18:39:56.299Z,100904.00
2023-02-16T18:42:23.732Z,100900.00
2023-02-16T18:44:51.354Z,100890.00
2023-02-16T18:47:18.744Z,100892.00
2023-02-16T18:49:48.136Z,100895.00
2023-02-16T18:52:17.152Z,100904.00
2023-02-16T18:54:45.440Z,100906.00
2023-02-16T18:57:12.964Z,100912.00
2023-02-16T18:59:40.904Z,100919.00
2023-02-16T19:02:11.152Z,100917.00
2023-02-16T19:04:39.030Z,100908.00
2023-02-16T19:07:07.138Z,100919.00
2023-02-16T19:09:34.854Z,100922.00
2023-02-16T19:12:03.318Z,100906.00
2023-02-16T19:14:30.664Z,100907.00
2023-02-16T19:16:58.209Z,100908.00
2023-02-16T19:19:25.619Z,100904.00
2023-02-16T19:21:53.225Z,100904.00
2023-02-16T19:24:20.741Z,100907.00
2023-02-16T19:26:48.253Z,100912.00
2023-02-16T19:29:16.446Z,100901.00
2023-02-16T19:31:44.051Z,100905.00
2023-02-16T19:34:12.194Z,100901.00
2023-02-16T19:36:39.757Z,100895.00
2023-02-16T19:39:07.312Z,100883.00
2023-02-16T19:41:37.547Z,100892.00
2023-02-16T19:44:05.583Z,100891.00
2023-02-16T19:46:34.702Z,100893.00
2023-02-16T19:49:02.501Z,100889.00
2023-02-16T19:51:32.447Z,100897.00
2023-02-16T19:54:00.254Z,100890.00
2023-02-16T19:56:28.073Z,100897.00
2023-02-16T19:58:57.854Z,100903.00
2023-02-16T20:01:27.149Z,100904.00
2023-02-16T20:03:57.120Z,100898.00
2023-02-16T20:06:27.160Z,100897.00
2023-02-16T20:08:55.918Z,100897.00
2023-02-16T20:11:25.435Z,100884.00
2023-02-16T20:13:53.750Z,100881.00
2023-02-16T20:16:22.287Z,100882.00
2023-02-16T20:18:50.138Z,100873.00
2023-02-16T20:21:20.819Z,100868.00
2023-02-16T20:23:49.031Z,100849.00
2023-02-16T20:26:18.439Z,100869.00
2023-02-16T20:28:46.335Z,100874.00
2023-02-16T20:31:15.437Z,100876.00
2023-02-16T20:33:43.081Z,100877.00
2023-02-16T20:36:11.172Z,100884.00
2023-02-16T20:38:39.361Z,100884.00
2023-02-16T20:41:07.149Z,100882.00
2023-02-16T20:43:34.860Z,100882.00
2023-02-16T20:46:03.505Z,100882.00
2023-02-16T20:48:31.659Z,100879.00
2023-02-16T20:51:01.861Z,100874.00
2023-02-16T20:53:29.717Z,100877.00
2023-02-16T20:56:02.438Z,100876.00
2023-02-16T20:58:30.348Z,100869.00
2023-02-16T21:00:57.809Z,100877.00
2023-02-16T21:03:25.245Z,100865.00
2023-02-16T21:05:52.529Z,100874.00
2023-02-16T21:08:19.849Z,100869.00
2023-02-16T21:10:47.112Z,100869.00
2023-02-16T21:13:17.897Z,100862.00
2023-02-16T21:15:45.192Z,100878.00
2023-02-16T21:18:12.542Z,100869.00
2023-02-16T21:20:40.137Z,100872.00
2023-02-16T21:23:07.476Z,100865.00
2023-02-16T21:25:35.372Z,100866.00
2023-02-16T21:28:03.057Z,100854.00
2023-02-16T21:30:31.224Z,100855.00
2023-02-16T21:32:58.608Z,100853.00
2023-02-16T21:35:26.222Z,100846.00
2023-02-16T21:37:53.502Z,100852.00
2023-02-16T21:40:38.936Z,100846.00
2023-02-16T21:43:06.194Z,100839.00
2023-02-16T21:45:34.156Z,100836.00
2023-02-16T21:48:19.963Z,100836.00
2023-02-16T21:50:47.243Z,100837.00
2023-02-16T21:53:14.533Z,100826.00
2023-02-16T21:55:59.932Z,100830.00
2023-02-16T21:58:29.362Z,100825.00
2023-02-16T22:00:57.326Z,100834.00
2023-02-16T22:03:25.174Z,100829.00
2023-02-16T22:05:52.520Z,100832.00
2023-02-16T22:08:19.780Z,100818.00
2023-02-16T22:10:47.105Z,100819.00
2023-02-16T22:13:14.396Z,100818.00
2023-02-16T22:15:41.684Z,100819.00
2023-02-16T22:18:09.689Z,100815.00
2023-02-16T22:20:36.970Z,100824.00
2023-02-16T22:23:04.361Z,100810.00
2023-02-16T22:25:31.700Z,100807.00
2023-02-16T22:27:58.937Z,100803.00
2023-02-16T22:30:26.266Z,100806.00
2023-02-16T22:32:53.587Z,100810.00
2023-02-16T22:35:21.572Z,100812.00
2023-02-16T22:37:48.862Z,100795.00
2023-02-16T22:40:16.646Z,100794.00
2023-02-16T22:42:43.960Z,100804.00
2023-02-16T22:45:11.508Z,100789.00
2023-02-16T22:47:38.850Z,100790.00
2023-02-16T22:50:07.311Z,100795.00
2023-02-16T22:52:37.413Z,100789.00
2023-02-16T22:55:05.128Z,100791.00
2023-02-16T22:57:36.359Z,100780.00
2023-02-16T23:00:05.329Z,100784.00
2023-02-16T23:02:32.683Z,100771.00
2023-02-16T23:04:59.957Z,100771.00
2023-02-16T23:07:27.370Z,100779.00
2023-02-16T23:09:55.427Z,100766.00
2023-02-16T23:12:22.783Z,100757.00
2023-02-16T23:14:50.369Z,100756.00
2023-02-16T23:17:17.774Z,100758.00
2023-02-16T23:19:45.145Z,100752.00
2023-02-16T23:22:12.462Z,100747.00
2023-02-16T23:24:40.986Z,100754.00
2023-02-16T23:27:09.056Z,100743.00
2023-02-16T23:29:36.334Z,100750.00
2023-02-16T23:32:05.882Z,100746.00
2023-02-16T23:34:33.174Z,100741.00
2023-02-16T23:37:00.460Z,100740.00
2023-02-16T23:39:27.729Z,100743.00
2023-02-16T23:41:56.020Z,100743.00
2023-02-16T23:44:24.003Z,100736.00
2023-02-16T23:46:51.243Z,100733.00
2023-02-16T23:49:18.565Z,100736.00
2023-02-16T23:51:45.881Z,100728.00
2023-02-16T23:54:13.168Z,100732.00
2023-02-16T23:56:40.778Z,100716.00
2023-02-16T23:59:08.099Z,100720.00
